sensor_id;sensor_type;location;lat;lon;timestamp;P1;durP1;ratioP1;P2;durP2;ratioP2
46036;SDS011;31769;49.304;8.428;2023-01-28T00:00:56;8.63;;;7.35;;
46036;SDS011;31769;49.304;8.428;2023-01-28T00:03:57;7.40;;;6.70;;
46036;SDS011;31769;49.304;8.428;2023-01-28T00:06:57;8.10;;;7.35;;
46036;SDS011;31769;49.304;8.428;2023-01-28T00:09:58;7.60;;;6.90;;
46036;SDS011;31769;49.304;8.428;2023-01-28T00:12:59;8.05;;;7.25;;
46036;SDS011;31769;49.304;8.428;2023-01-28T00:16:00;8.15;;;7.43;;
46036;SDS011;31769;49.304;8.428;2023-01-28T00:19:03;8.68;;;7.82;;
46036;SDS011;31769;49.304;8.428;2023-01-28T00:22:04;8.73;;;7.93;;
46036;SDS011;31769;49.304;8.428;2023-01-28T00:25:05;8.75;;;7.85;;
46036;SDS011;31769;49.304;8.428;2023-01-28T00:28:06;7.97;;;7.22;;
46036;SDS011;31769;49.304;8.428;2023-01-28T00:31:07;7.88;;;7.18;;
46036;SDS011;31769;49.304;8.428;2023-01-28T00:34:08;7.53;;;6.72;;
46036;SDS011;31769;49.304;8.428;2023-01-28T00:37:09;7.75;;;7.05;;
46036;SDS011;31769;49.304;8.428;2023-01-28T00:40:10;7.18;;;6.57;;
46036;SDS011;31769;49.304;8.428;2023-01-28T00:43:11;7.95;;;7.25;;
46036;SDS011;31769;49.304;8.428;2023-01-28T00:46:12;6.85;;;6.25;;
46036;SDS011;31769;49.304;8.428;2023-01-28T00:49:13;20.45;;;16.50;;
46036;SDS011;31769;49.304;8.428;2023-01-28T00:52:14;6.90;;;6.22;;
46036;SDS011;31769;49.304;8.428;2023-01-28T00:55:15;7.53;;;6.80;;
46036;SDS011;31769;49.304;8.428;2023-01-28T00:58:16;7.07;;;6.47;;
46036;SDS011;31769;49.304;8.428;2023-01-28T01:01:21;7.00;;;6.30;;
46036;SDS011;31769;49.304;8.428;2023-01-28T01:04:24;7.10;;;6.40;;
46036;SDS011;31769;49.304;8.428;2023-01-28T01:07:27;7.38;;;6.63;;
46036;SDS011;31769;49.304;8.428;2023-01-28T01:10:40;7.90;;;7.10;;
46036;SDS011;31769;49.304;8.428;2023-01-28T01:13:41;7.30;;;6.68;;
46036;SDS011;31769;49.304;8.428;2023-01-28T01:16:42;7.70;;;7.00;;
46036;SDS011;31769;49.304;8.428;2023-01-28T01:19:42;7.70;;;7.00;;
46036;SDS011;31769;49.304;8.428;2023-01-28T01:22:43;9.35;;;8.45;;
46036;SDS011;31769;49.304;8.428;2023-01-28T01:25:44;9.15;;;8.25;;
46036;SDS011;31769;49.304;8.428;2023-01-28T01:28:45;9.77;;;8.77;;
46036;SDS011;31769;49.304;8.428;2023-01-28T01:31:46;9.35;;;8.55;;
46036;SDS011;31769;49.304;8.428;2023-01-28T01:34:47;9.65;;;8.65;;
46036;SDS011;31769;49.304;8.428;2023-01-28T01:37:48;9.20;;;8.30;;
46036;SDS011;31769;49.304;8.428;2023-01-28T01:40:49;9.00;;;8.20;;
46036;SDS011;31769;49.304;8.428;2023-01-28T01:43:54;9.07;;;8.18;;
46036;SDS011;31769;49.304;8.428;2023-01-28T01:46:57;8.52;;;7.70;;
46036;SDS011;31769;49.304;8.428;2023-01-28T01:49:58;8.63;;;7.78;;
46036;SDS011;31769;49.304;8.428;2023-01-28T01:53:07;9.27;;;8.07;;
46036;SDS011;31769;49.304;8.428;2023-01-28T01:56:12;9.00;;;8.13;;
46036;SDS011;31769;49.304;8.428;2023-01-28T01:59:18;8.25;;;7.47;;
46036;SDS011;31769;49.304;8.428;2023-01-28T02:02:24;8.55;;;7.75;;
46036;SDS011;31769;49.304;8.428;2023-01-28T02:05:25;8.40;;;7.63;;
46036;SDS011;31769;49.304;8.428;2023-01-28T02:08:26;8.98;;;8.10;;
46036;SDS011;31769;49.304;8.428;2023-01-28T02:11:28;8.60;;;7.80;;
46036;SDS011;31769;49.304;8.428;2023-01-28T02:14:31;10.40;;;8.07;;
46036;SDS011;31769;49.304;8.428;2023-01-28T02:17:36;8.23;;;7.43;;
46036;SDS011;31769;49.304;8.428;2023-01-28T02:20:58;7.85;;;7.05;;
46036;SDS011;31769;49.304;8.428;2023-01-28T02:24:18;8.20;;;7.35;;
46036;SDS011;31769;49.304;8.428;2023-01-28T02:31:15;7.90;;;7.10;;
46036;SDS011;31769;49.304;8.428;2023-01-28T02:37:24;7.57;;;6.88;;
46036;SDS011;31769;49.304;8.428;2023-01-28T02:40:34;7.05;;;6.45;;
46036;SDS011;31769;49.304;8.428;2023-01-28T02:44:02;7.38;;;6.38;;
46036;SDS011;31769;49.304;8.428;2023-01-28T02:47:07;6.95;;;6.35;;
46036;SDS011;31769;49.304;8.428;2023-01-28T02:50:30;6.40;;;5.80;;
46036;SDS011;31769;49.304;8.428;2023-01-28T02:53:46;7.47;;;6.43;;
46036;SDS011;31769;49.304;8.428;2023-01-28T03:03:29;6.85;;;6.15;;
46036;SDS011;31769;49.304;8.428;2023-01-28T03:06:32;6.38;;;5.70;;
46036;SDS011;31769;49.304;8.428;2023-01-28T03:14:07;6.60;;;5.28;;
46036;SDS011;31769;49.304;8.428;2023-01-28T03:21:12;5.07;;;4.57;;
46036;SDS011;31769;49.304;8.428;2023-01-28T03:24:41;5.50;;;5.03;;
46036;SDS011;31769;49.304;8.428;2023-01-28T03:28:07;5.63;;;5.03;;
46036;SDS011;31769;49.304;8.428;2023-01-28T03:31:33;5.05;;;4.65;;
46036;SDS011;31769;49.304;8.428;2023-01-28T03:34:54;5.00;;;4.60;;
46036;SDS011;31769;49.304;8.428;2023-01-28T03:38:14;5.10;;;4.43;;
46036;SDS011;31769;49.304;8.428;2023-01-28T03:41:24;4.80;;;4.30;;
46036;SDS011;31769;49.304;8.428;2023-01-28T03:44:27;5.15;;;4.55;;
46036;SDS011;31769;49.304;8.428;2023-01-28T03:47:47;5.03;;;4.63;;
46036;SDS011;31769;49.304;8.428;2023-01-28T03:50:51;5.07;;;4.53;;
46036;SDS011;31769;49.304;8.428;2023-01-28T03:53:54;4.88;;;4.47;;
46036;SDS011;31769;49.304;8.428;2023-01-28T03:56:55;4.97;;;4.47;;
46036;SDS011;31769;49.304;8.428;2023-01-28T03:59:55;5.07;;;4.68;;
46036;SDS011;31769;49.304;8.428;2023-01-28T04:02:56;5.30;;;4.38;;
46036;SDS011;31769;49.304;8.428;2023-01-28T04:09:00;5.50;;;4.20;;
46036;SDS011;31769;49.304;8.428;2023-01-28T04:12:06;4.10;;;3.78;;
46036;SDS011;31769;49.304;8.428;2023-01-28T04:15:12;4.15;;;3.85;;
46036;SDS011;31769;49.304;8.428;2023-01-28T04:18:17;4.20;;;3.90;;
46036;SDS011;31769;49.304;8.428;2023-01-28T04:21:21;4.57;;;4.18;;
46036;SDS011;31769;49.304;8.428;2023-01-28T04:24:21;4.35;;;4.00;;
46036;SDS011;31769;49.304;8.428;2023-01-28T04:27:22;4.18;;;3.80;;
46036;SDS011;31769;49.304;8.428;2023-01-28T04:30:24;6.35;;;4.40;;
46036;SDS011;31769;49.304;8.428;2023-01-28T04:33:54;4.72;;;4.30;;
46036;SDS011;31769;49.304;8.428;2023-01-28T04:37:12;6.30;;;4.53;;
46036;SDS011;31769;49.304;8.428;2023-01-28T04:40:19;4.68;;;4.28;;
46036;SDS011;31769;49.304;8.428;2023-01-28T04:43:38;5.22;;;4.82;;
46036;SDS011;31769;49.304;8.428;2023-01-28T04:46:57;5.10;;;4.60;;
46036;SDS011;31769;49.304;8.428;2023-01-28T04:50:09;4.88;;;4.47;;
46036;SDS011;31769;49.304;8.428;2023-01-28T04:53:31;5.32;;;4.82;;
46036;SDS011;31769;49.304;8.428;2023-01-28T04:56:33;5.25;;;4.72;;
46036;SDS011;31769;49.304;8.428;2023-01-28T04:59:34;4.78;;;4.28;;
46036;SDS011;31769;49.304;8.428;2023-01-28T05:02:35;4.93;;;4.53;;
46036;SDS011;31769;49.304;8.428;2023-01-28T05:05:36;4.47;;;4.07;;
46036;SDS011;31769;49.304;8.428;2023-01-28T05:09:02;4.72;;;4.32;;
46036;SDS011;31769;49.304;8.428;2023-01-28T05:12:03;5.55;;;4.97;;
46036;SDS011;31769;49.304;8.428;2023-01-28T05:15:06;6.38;;;4.93;;
46036;SDS011;31769;49.304;8.428;2023-01-28T05:18:07;4.97;;;4.50;;
46036;SDS011;31769;49.304;8.428;2023-01-28T05:21:13;5.10;;;4.50;;
46036;SDS011;31769;49.304;8.428;2023-01-28T05:24:14;5.07;;;4.57;;
46036;SDS011;31769;49.304;8.428;2023-01-28T05:27:17;5.45;;;4.70;;
46036;SDS011;31769;49.304;8.428;2023-01-28T05:30:18;5.85;;;4.63;;
46036;SDS011;31769;49.304;8.428;2023-01-28T05:33:19;4.72;;;4.32;;
46036;SDS011;31769;49.304;8.428;2023-01-28T05:36:20;6.03;;;3.92;;
46036;SDS011;31769;49.304;8.428;2023-01-28T05:39:21;4.40;;;4.00;;
46036;SDS011;31769;49.304;8.428;2023-01-28T05:42:22;5.22;;;4.05;;
46036;SDS011;31769;49.304;8.428;2023-01-28T05:45:26;5.93;;;4.22;;
46036;SDS011;31769;49.304;8.428;2023-01-28T05:48:36;4.30;;;3.90;;
46036;SDS011;31769;49.304;8.428;2023-01-28T05:51:39;4.70;;;4.18;;
46036;SDS011;31769;49.304;8.428;2023-01-28T05:54:41;4.00;;;3.70;;
46036;SDS011;31769;49.304;8.428;2023-01-28T05:57:42;4.28;;;3.88;;
46036;SDS011;31769;49.304;8.428;2023-01-28T06:00:44;4.25;;;3.85;;
46036;SDS011;31769;49.304;8.428;2023-01-28T06:03:46;4.20;;;3.90;;
46036;SDS011;31769;49.304;8.428;2023-01-28T06:06:46;4.57;;;4.18;;
46036;SDS011;31769;49.304;8.428;2023-01-28T06:09:47;6.43;;;4.43;;
46036;SDS011;31769;49.304;8.428;2023-01-28T06:12:50;4.30;;;4.00;;
46036;SDS011;31769;49.304;8.428;2023-01-28T06:16:09;4.20;;;3.80;;
46036;SDS011;31769;49.304;8.428;2023-01-28T06:19:16;4.70;;;3.90;;
46036;SDS011;31769;49.304;8.428;2023-01-28T06:22:16;4.10;;;3.67;;
46036;SDS011;31769;49.304;8.428;2023-01-28T06:25:17;5.18;;;4.05;;
46036;SDS011;31769;49.304;8.428;2023-01-28T06:28:18;4.57;;;4.18;;
46036;SDS011;31769;49.304;8.428;2023-01-28T06:31:19;6.85;;;5.10;;
46036;SDS011;31769;49.304;8.428;2023-01-28T06:34:19;4.80;;;4.40;;
46036;SDS011;31769;49.304;8.428;2023-01-28T06:37:20;6.13;;;5.10;;
46036;SDS011;31769;49.304;8.428;2023-01-28T06:40:20;5.07;;;4.57;;
46036;SDS011;31769;49.304;8.428;2023-01-28T06:43:25;5.47;;;4.97;;
46036;SDS011;31769;49.304;8.428;2023-01-28T06:46:27;5.35;;;4.78;;
46036;SDS011;31769;49.304;8.428;2023-01-28T06:49:28;5.80;;;5.30;;
46036;SDS011;31769;49.304;8.428;2023-01-28T06:52:28;6.20;;;5.60;;
46036;SDS011;31769;49.304;8.428;2023-01-28T06:55:29;5.63;;;4.88;;
46036;SDS011;31769;49.304;8.428;2023-01-28T06:58:30;6.07;;;5.47;;
46036;SDS011;31769;49.304;8.428;2023-01-28T07:01:30;6.22;;;5.60;;
46036;SDS011;31769;49.304;8.428;2023-01-28T07:04:32;6.43;;;5.50;;
46036;SDS011;31769;49.304;8.428;2023-01-28T07:07:32;5.60;;;5.10;;
46036;SDS011;31769;49.304;8.428;2023-01-28T07:10:33;5.95;;;5.45;;
46036;SDS011;31769;49.304;8.428;2023-01-28T07:13:34;7.22;;;5.97;;
46036;SDS011;31769;49.304;8.428;2023-01-28T07:16:34;7.03;;;5.97;;
46036;SDS011;31769;49.304;8.428;2023-01-28T07:19:35;7.05;;;5.80;;
46036;SDS011;31769;49.304;8.428;2023-01-28T07:22:36;7.10;;;6.20;;
46036;SDS011;31769;49.304;8.428;2023-01-28T07:25:39;7.40;;;6.65;;
46036;SDS011;31769;49.304;8.428;2023-01-28T07:28:39;6.78;;;6.07;;
46036;SDS011;31769;49.304;8.428;2023-01-28T07:31:40;7.20;;;6.60;;
46036;SDS011;31769;49.304;8.428;2023-01-28T07:34:41;10.10;;;7.25;;
46036;SDS011;31769;49.304;8.428;2023-01-28T07:37:42;7.82;;;7.13;;
46036;SDS011;31769;49.304;8.428;2023-01-28T07:40:50;8.38;;;6.90;;
46036;SDS011;31769;49.304;8.428;2023-01-28T07:43:51;9.65;;;6.80;;
46036;SDS011;31769;49.304;8.428;2023-01-28T07:46:51;8.50;;;7.53;;
46036;SDS011;31769;49.304;8.428;2023-01-28T07:49:52;8.93;;;6.88;;
46036;SDS011;31769;49.304;8.428;2023-01-28T07:52:54;7.90;;;6.82;;
46036;SDS011;31769;49.304;8.428;2023-01-28T07:55:59;8.57;;;7.78;;
46036;SDS011;31769;49.304;8.428;2023-01-28T07:59:00;10.60;;;8.20;;
46036;SDS011;31769;49.304;8.428;2023-01-28T08:02:01;28.83;;;21.52;;
46036;SDS011;31769;49.304;8.428;2023-01-28T08:05:01;8.38;;;7.32;;
46036;SDS011;31769;49.304;8.428;2023-01-28T08:08:02;9.80;;;7.32;;
46036;SDS011;31769;49.304;8.428;2023-01-28T08:11:07;8.80;;;7.80;;
46036;SDS011;31769;49.304;8.428;2023-01-28T08:14:09;8.23;;;7.43;;
46036;SDS011;31769;49.304;8.428;2023-01-28T08:17:10;8.10;;;7.30;;
46036;SDS011;31769;49.304;8.428;2023-01-28T08:20:11;9.50;;;7.72;;
46036;SDS011;31769;49.304;8.428;2023-01-28T08:26:14;8.70;;;7.80;;
46036;SDS011;31769;49.304;8.428;2023-01-28T08:29:14;8.52;;;7.72;;
46036;SDS011;31769;49.304;8.428;2023-01-28T08:32:15;9.57;;;7.93;;
46036;SDS011;31769;49.304;8.428;2023-01-28T08:35:16;8.68;;;7.78;;
46036;SDS011;31769;49.304;8.428;2023-01-28T08:38:16;8.70;;;7.90;;
46036;SDS011;31769;49.304;8.428;2023-01-28T08:41:22;11.07;;;7.82;;
46036;SDS011;31769;49.304;8.428;2023-01-28T08:44:23;10.48;;;7.85;;
46036;SDS011;31769;49.304;8.428;2023-01-28T08:47:23;9.30;;;8.07;;
46036;SDS011;31769;49.304;8.428;2023-01-28T08:50:25;7.82;;;7.03;;
46036;SDS011;31769;49.304;8.428;2023-01-28T08:53:28;8.43;;;7.63;;
46036;SDS011;31769;49.304;8.428;2023-01-28T08:56:29;8.48;;;7.57;;
46036;SDS011;31769;49.304;8.428;2023-01-28T08:59:29;10.98;;;7.70;;
46036;SDS011;31769;49.304;8.428;2023-01-28T09:02:30;9.35;;;8.00;;
46036;SDS011;31769;49.304;8.428;2023-01-28T09:05:31;8.35;;;7.55;;
46036;SDS011;31769;49.304;8.428;2023-01-28T09:08:33;9.35;;;8.32;;
46036;SDS011;31769;49.304;8.428;2023-01-28T09:11:34;9.98;;;7.75;;
46036;SDS011;31769;49.304;8.428;2023-01-28T09:14:35;10.73;;;8.00;;
46036;SDS011;31769;49.304;8.428;2023-01-28T09:17:35;11.52;;;9.38;;
46036;SDS011;31769;49.304;8.428;2023-01-28T09:20:36;14.80;;;11.23;;
46036;SDS011;31769;49.304;8.428;2023-01-28T09:23:37;12.18;;;8.98;;
46036;SDS011;31769;49.304;8.428;2023-01-28T09:26:38;8.63;;;7.78;;
46036;SDS011;31769;49.304;8.428;2023-01-28T09:29:39;8.10;;;7.30;;
46036;SDS011;31769;49.304;8.428;2023-01-28T09:32:39;8.50;;;7.47;;
46036;SDS011;31769;49.304;8.428;2023-01-28T09:35:40;9.60;;;7.95;;
46036;SDS011;31769;49.304;8.428;2023-01-28T09:38:40;8.93;;;7.22;;
46036;SDS011;31769;49.304;8.428;2023-01-28T09:45:11;8.18;;;7.38;;
46036;SDS011;31769;49.304;8.428;2023-01-28T09:48:34;9.05;;;8.15;;
46036;SDS011;31769;49.304;8.428;2023-01-28T09:51:44;8.55;;;7.75;;
46036;SDS011;31769;49.304;8.428;2023-01-28T09:58:00;9.68;;;7.68;;
46036;SDS011;31769;49.304;8.428;2023-01-28T10:04:25;8.07;;;7.13;;
46036;SDS011;31769;49.304;8.428;2023-01-28T10:11:48;8.93;;;6.70;;
46036;SDS011;31769;49.304;8.428;2023-01-28T10:18:08;8.35;;;7.15;;
46036;SDS011;31769;49.304;8.428;2023-01-28T10:21:46;8.48;;;7.15;;
46036;SDS011;31769;49.304;8.428;2023-01-28T10:24:47;9.95;;;7.40;;
46036;SDS011;31769;49.304;8.428;2023-01-28T10:27:52;7.97;;;6.78;;
46036;SDS011;31769;49.304;8.428;2023-01-28T10:30:52;10.57;;;7.10;;
46036;SDS011;31769;49.304;8.428;2023-01-28T10:33:53;7.93;;;6.85;;
46036;SDS011;31769;49.304;8.428;2023-01-28T10:36:54;9.60;;;7.05;;
46036;SDS011;31769;49.304;8.428;2023-01-28T10:39:57;7.90;;;7.10;;
46036;SDS011;31769;49.304;8.428;2023-01-28T10:42:59;7.53;;;6.82;;
46036;SDS011;31769;49.304;8.428;2023-01-28T10:46:20;9.35;;;6.40;;
46036;SDS011;31769;49.304;8.428;2023-01-28T10:49:26;8.32;;;6.97;;
46036;SDS011;31769;49.304;8.428;2023-01-28T10:52:29;9.32;;;7.35;;
46036;SDS011;31769;49.304;8.428;2023-01-28T10:55:33;7.78;;;6.75;;
46036;SDS011;31769;49.304;8.428;2023-01-28T11:02:23;11.15;;;6.65;;
46036;SDS011;31769;49.304;8.428;2023-01-28T11:05:26;8.98;;;6.57;;
46036;SDS011;31769;49.304;8.428;2023-01-28T11:08:30;7.28;;;6.55;;
46036;SDS011;31769;49.304;8.428;2023-01-28T11:11:30;9.27;;;6.68;;
46036;SDS011;31769;49.304;8.428;2023-01-28T11:14:31;11.27;;;8.85;;
46036;SDS011;31769;49.304;8.428;2023-01-28T11:17:32;7.40;;;6.63;;
46036;SDS011;31769;49.304;8.428;2023-01-28T11:20:40;8.70;;;6.57;;
46036;SDS011;31769;49.304;8.428;2023-01-28T11:23:48;6.90;;;6.20;;
46036;SDS011;31769;49.304;8.428;2023-01-28T11:26:53;9.27;;;6.82;;
46036;SDS011;31769;49.304;8.428;2023-01-28T11:29:56;7.75;;;6.80;;
46036;SDS011;31769;49.304;8.428;2023-01-28T11:36:28;10.52;;;6.80;;
46036;SDS011;31769;49.304;8.428;2023-01-28T11:39:30;7.93;;;6.20;;
46036;SDS011;31769;49.304;8.428;2023-01-28T11:42:30;20.75;;;12.77;;
46036;SDS011;31769;49.304;8.428;2023-01-28T11:52:00;9.70;;;7.13;;
46036;SDS011;31769;49.304;8.428;2023-01-28T11:55:20;7.88;;;6.82;;
46036;SDS011;31769;49.304;8.428;2023-01-28T11:58:47;12.50;;;6.60;;
46036;SDS011;31769;49.304;8.428;2023-01-28T12:05:18;17.98;;;10.02;;
46036;SDS011;31769;49.304;8.428;2023-01-28T12:08:36;7.93;;;5.95;;
46036;SDS011;31769;49.304;8.428;2023-01-28T12:11:49;6.57;;;5.85;;
46036;SDS011;31769;49.304;8.428;2023-01-28T12:15:30;6.88;;;5.93;;
46036;SDS011;31769;49.304;8.428;2023-01-28T12:22:34;7.05;;;5.53;;
46036;SDS011;31769;49.304;8.428;2023-01-28T12:25:53;5.28;;;4.78;;
46036;SDS011;31769;49.304;8.428;2023-01-28T12:35:56;5.38;;;4.80;;
46036;SDS011;31769;49.304;8.428;2023-01-28T12:39:29;5.22;;;4.75;;
46036;SDS011;31769;49.304;8.428;2023-01-28T12:46:03;6.85;;;4.55;;
46036;SDS011;31769;49.304;8.428;2023-01-28T12:49:22;5.35;;;4.72;;
46036;SDS011;31769;49.304;8.428;2023-01-28T12:52:29;6.75;;;4.68;;
46036;SDS011;31769;49.304;8.428;2023-01-28T12:55:35;6.30;;;4.38;;
46036;SDS011;31769;49.304;8.428;2023-01-28T13:08:27;4.47;;;4.07;;
46036;SDS011;31769;49.304;8.428;2023-01-28T13:11:34;4.97;;;4.47;;
46036;SDS011;31769;49.304;8.428;2023-01-28T13:14:36;5.43;;;4.80;;
46036;SDS011;31769;49.304;8.428;2023-01-28T13:17:37;5.32;;;4.68;;
46036;SDS011;31769;49.304;8.428;2023-01-28T13:20:45;6.68;;;4.45;;
46036;SDS011;31769;49.304;8.428;2023-01-28T13:23:48;5.30;;;4.85;;
46036;SDS011;31769;49.304;8.428;2023-01-28T13:26:51;5.35;;;4.22;;
46036;SDS011;31769;49.304;8.428;2023-01-28T13:30:06;6.90;;;4.88;;
46036;SDS011;31769;49.304;8.428;2023-01-28T13:33:26;7.47;;;4.50;;
46036;SDS011;31769;49.304;8.428;2023-01-28T13:36:30;4.65;;;4.30;;
46036;SDS011;31769;49.304;8.428;2023-01-28T13:39:36;6.00;;;4.17;;
46036;SDS011;31769;49.304;8.428;2023-01-28T13:42:37;5.35;;;4.53;;
46036;SDS011;31769;49.304;8.428;2023-01-28T13:45:38;4.80;;;4.40;;
46036;SDS011;31769;49.304;8.428;2023-01-28T13:52:04;5.43;;;4.70;;
46036;SDS011;31769;49.304;8.428;2023-01-28T13:58:30;8.05;;;5.30;;
46036;SDS011;31769;49.304;8.428;2023-01-28T14:01:50;4.65;;;4.20;;
46036;SDS011;31769;49.304;8.428;2023-01-28T14:05:18;4.80;;;4.40;;
46036;SDS011;31769;49.304;8.428;2023-01-28T14:18:55;5.03;;;4.20;;
46036;SDS011;31769;49.304;8.428;2023-01-28T14:22:05;5.90;;;4.43;;
46036;SDS011;31769;49.304;8.428;2023-01-28T14:25:11;6.05;;;4.68;;
46036;SDS011;31769;49.304;8.428;2023-01-28T14:28:19;5.45;;;4.38;;
46036;SDS011;31769;49.304;8.428;2023-01-28T14:31:32;7.07;;;4.32;;
46036;SDS011;31769;49.304;8.428;2023-01-28T14:34:37;4.20;;;3.90;;
46036;SDS011;31769;49.304;8.428;2023-01-28T14:37:38;6.13;;;4.47;;
46036;SDS011;31769;49.304;8.428;2023-01-28T14:40:40;4.38;;;3.58;;
46036;SDS011;31769;49.304;8.428;2023-01-28T14:43:41;4.00;;;3.40;;
46036;SDS011;31769;49.304;8.428;2023-01-28T14:46:44;3.97;;;3.58;;
46036;SDS011;31769;49.304;8.428;2023-01-28T14:50:21;4.25;;;3.45;;
46036;SDS011;31769;49.304;8.428;2023-01-28T15:00:27;4.15;;;3.70;;
46036;SDS011;31769;49.304;8.428;2023-01-28T15:03:30;3.78;;;3.42;;
46036;SDS011;31769;49.304;8.428;2023-01-28T15:06:34;4.03;;;3.70;;
46036;SDS011;31769;49.304;8.428;2023-01-28T15:09:35;4.70;;;4.30;;
46036;SDS011;31769;49.304;8.428;2023-01-28T15:12:36;6.55;;;4.53;;
46036;SDS011;31769;49.304;8.428;2023-01-28T15:15:39;4.38;;;4.07;;
46036;SDS011;31769;49.304;8.428;2023-01-28T15:18:41;5.28;;;4.78;;
46036;SDS011;31769;49.304;8.428;2023-01-28T15:21:43;4.85;;;4.45;;
46036;SDS011;31769;49.304;8.428;2023-01-28T15:24:44;6.40;;;4.72;;
46036;SDS011;31769;49.304;8.428;2023-01-28T15:27:45;5.63;;;5.13;;
46036;SDS011;31769;49.304;8.428;2023-01-28T15:30:46;6.95;;;5.60;;
46036;SDS011;31769;49.304;8.428;2023-01-28T15:33:57;5.43;;;4.82;;
46036;SDS011;31769;49.304;8.428;2023-01-28T15:36:59;6.43;;;4.93;;
46036;SDS011;31769;49.304;8.428;2023-01-28T15:40:01;5.93;;;5.28;;
46036;SDS011;31769;49.304;8.428;2023-01-28T15:43:05;6.40;;;5.53;;
46036;SDS011;31769;49.304;8.428;2023-01-28T15:46:09;7.03;;;6.30;;
46036;SDS011;31769;49.304;8.428;2023-01-28T15:49:12;8.45;;;7.05;;
46036;SDS011;31769;49.304;8.428;2023-01-28T15:52:14;10.23;;;8.52;;
46036;SDS011;31769;49.304;8.428;2023-01-28T15:58:35;8.20;;;6.10;;
46036;SDS011;31769;49.304;8.428;2023-01-28T16:01:40;7.25;;;5.50;;
46036;SDS011;31769;49.304;8.428;2023-01-28T16:04:41;5.45;;;4.93;;
46036;SDS011;31769;49.304;8.428;2023-01-28T16:07:43;6.78;;;5.28;;
46036;SDS011;31769;49.304;8.428;2023-01-28T16:10:50;7.68;;;5.85;;
46036;SDS011;31769;49.304;8.428;2023-01-28T16:13:52;13.52;;;10.57;;
46036;SDS011;31769;49.304;8.428;2023-01-28T16:16:54;10.88;;;7.47;;
46036;SDS011;31769;49.304;8.428;2023-01-28T16:20:00;8.50;;;7.40;;
46036;SDS011;31769;49.304;8.428;2023-01-28T16:23:19;8.93;;;7.65;;
46036;SDS011;31769;49.304;8.428;2023-01-28T16:26:28;10.30;;;8.35;;
46036;SDS011;31769;49.304;8.428;2023-01-28T16:29:30;10.60;;;8.98;;
46036;SDS011;31769;49.304;8.428;2023-01-28T16:35:32;7.80;;;7.00;;
46036;SDS011;31769;49.304;8.428;2023-01-28T16:38:32;11.27;;;8.18;;
46036;SDS011;31769;49.304;8.428;2023-01-28T16:41:34;10.25;;;8.45;;
46036;SDS011;31769;49.304;8.428;2023-01-28T16:44:39;8.77;;;7.00;;
46036;SDS011;31769;49.304;8.428;2023-01-28T16:47:40;14.10;;;8.07;;
46036;SDS011;31769;49.304;8.428;2023-01-28T16:50:41;9.27;;;7.13;;
46036;SDS011;31769;49.304;8.428;2023-01-28T16:53:42;10.10;;;7.95;;
46036;SDS011;31769;49.304;8.428;2023-01-28T16:56:45;12.07;;;8.75;;
46036;SDS011;31769;49.304;8.428;2023-01-28T16:59:46;8.25;;;7.40;;
46036;SDS011;31769;49.304;8.428;2023-01-28T17:02:47;8.55;;;7.07;;
46036;SDS011;31769;49.304;8.428;2023-01-28T17:05:49;11.63;;;8.73;;
46036;SDS011;31769;49.304;8.428;2023-01-28T17:08:50;10.68;;;8.02;;
46036;SDS011;31769;49.304;8.428;2023-01-28T17:11:50;14.02;;;9.63;;
46036;SDS011;31769;49.304;8.428;2023-01-28T17:14:51;13.40;;;9.70;;
46036;SDS011;31769;49.304;8.428;2023-01-28T17:17:51;25.77;;;14.82;;
46036;SDS011;31769;49.304;8.428;2023-01-28T17:20:52;18.95;;;13.15;;
46036;SDS011;31769;49.304;8.428;2023-01-28T17:23:53;16.17;;;11.18;;
46036;SDS011;31769;49.304;8.428;2023-01-28T17:26:54;11.77;;;9.70;;
46036;SDS011;31769;49.304;8.428;2023-01-28T17:29:54;15.80;;;11.80;;
46036;SDS011;31769;49.304;8.428;2023-01-28T17:32:56;17.55;;;12.43;;
46036;SDS011;31769;49.304;8.428;2023-01-28T17:35:57;22.63;;;15.20;;
46036;SDS011;31769;49.304;8.428;2023-01-28T17:38:57;11.82;;;9.60;;
46036;SDS011;31769;49.304;8.428;2023-01-28T17:41:58;13.60;;;11.40;;
46036;SDS011;31769;49.304;8.428;2023-01-28T17:44:59;14.20;;;12.45;;
46036;SDS011;31769;49.304;8.428;2023-01-28T17:48:02;14.82;;;10.98;;
46036;SDS011;31769;49.304;8.428;2023-01-28T17:51:03;13.70;;;10.48;;
46036;SDS011;31769;49.304;8.428;2023-01-28T17:54:03;12.52;;;10.18;;
46036;SDS011;31769;49.304;8.428;2023-01-28T17:57:04;11.70;;;9.73;;
46036;SDS011;31769;49.304;8.428;2023-01-28T18:00:05;14.30;;;10.43;;
46036;SDS011;31769;49.304;8.428;2023-01-28T18:03:12;14.20;;;11.45;;
46036;SDS011;31769;49.304;8.428;2023-01-28T18:06:13;9.95;;;8.95;;
46036;SDS011;31769;49.304;8.428;2023-01-28T18:09:14;9.15;;;8.25;;
46036;SDS011;31769;49.304;8.428;2023-01-28T18:12:15;9.30;;;8.25;;
46036;SDS011;31769;49.304;8.428;2023-01-28T18:15:15;9.45;;;8.45;;
46036;SDS011;31769;49.304;8.428;2023-01-28T18:18:16;15.35;;;8.75;;
46036;SDS011;31769;49.304;8.428;2023-01-28T18:21:18;10.15;;;9.15;;
46036;SDS011;31769;49.304;8.428;2023-01-28T18:24:38;12.25;;;10.07;;
46036;SDS011;31769;49.304;8.428;2023-01-28T18:27:40;14.48;;;10.93;;
46036;SDS011;31769;49.304;8.428;2023-01-28T18:30:41;14.57;;;11.70;;
46036;SDS011;31769;49.304;8.428;2023-01-28T18:33:42;11.15;;;9.82;;
46036;SDS011;31769;49.304;8.428;2023-01-28T18:36:42;15.05;;;11.88;;
46036;SDS011;31769;49.304;8.428;2023-01-28T18:39:43;15.20;;;11.32;;
46036;SDS011;31769;49.304;8.428;2023-01-28T18:42:44;10.23;;;9.18;;
46036;SDS011;31769;49.304;8.428;2023-01-28T18:45:45;12.50;;;10.05;;
46036;SDS011;31769;49.304;8.428;2023-01-28T18:48:48;16.15;;;11.85;;
46036;SDS011;31769;49.304;8.428;2023-01-28T18:51:49;15.90;;;11.18;;
46036;SDS011;31769;49.304;8.428;2023-01-28T18:54:49;13.23;;;10.73;;
46036;SDS011;31769;49.304;8.428;2023-01-28T18:57:50;13.85;;;10.27;;
46036;SDS011;31769;49.304;8.428;2023-01-28T19:00:51;13.10;;;10.63;;
46036;SDS011;31769;49.304;8.428;2023-01-28T19:03:55;14.05;;;12.55;;
46036;SDS011;31769;49.304;8.428;2023-01-28T19:06:57;13.93;;;10.73;;
46036;SDS011;31769;49.304;8.428;2023-01-28T19:09:58;14.68;;;10.82;;
46036;SDS011;31769;49.304;8.428;2023-01-28T19:12:58;18.83;;;13.18;;
46036;SDS011;31769;49.304;8.428;2023-01-28T19:16:03;12.50;;;10.13;;
46036;SDS011;31769;49.304;8.428;2023-01-28T19:19:04;17.65;;;11.95;;
46036;SDS011;31769;49.304;8.428;2023-01-28T19:22:05;13.00;;;10.45;;
46036;SDS011;31769;49.304;8.428;2023-01-28T19:25:07;11.85;;;10.52;;
46036;SDS011;31769;49.304;8.428;2023-01-28T19:28:08;15.85;;;11.40;;
46036;SDS011;31769;49.304;8.428;2023-01-28T19:31:09;15.45;;;12.10;;
46036;SDS011;31769;49.304;8.428;2023-01-28T19:34:09;14.25;;;11.38;;
46036;SDS011;31769;49.304;8.428;2023-01-28T19:37:10;14.70;;;11.07;;
46036;SDS011;31769;49.304;8.428;2023-01-28T19:40:12;13.30;;;11.05;;
46036;SDS011;31769;49.304;8.428;2023-01-28T19:43:13;11.00;;;9.50;;
46036;SDS011;31769;49.304;8.428;2023-01-28T19:46:14;10.40;;;9.40;;
46036;SDS011;31769;49.304;8.428;2023-01-28T19:49:16;10.65;;;9.55;;
46036;SDS011;31769;49.304;8.428;2023-01-28T19:52:17;13.05;;;10.23;;
46036;SDS011;31769;49.304;8.428;2023-01-28T19:55:17;11.38;;;10.18;;
46036;SDS011;31769;49.304;8.428;2023-01-28T19:58:18;13.32;;;10.60;;
46036;SDS011;31769;49.304;8.428;2023-01-28T20:01:20;12.25;;;10.40;;
46036;SDS011;31769;49.304;8.428;2023-01-28T20:04:22;13.15;;;10.63;;
46036;SDS011;31769;49.304;8.428;2023-01-28T20:07:23;12.80;;;10.30;;
46036;SDS011;31769;49.304;8.428;2023-01-28T20:10:24;11.10;;;10.00;;
46036;SDS011;31769;49.304;8.428;2023-01-28T20:13:24;10.43;;;9.30;;
46036;SDS011;31769;49.304;8.428;2023-01-28T20:16:26;13.27;;;10.45;;
46036;SDS011;31769;49.304;8.428;2023-01-28T20:19:28;12.63;;;10.13;;
46036;SDS011;31769;49.304;8.428;2023-01-28T20:22:29;13.20;;;10.35;;